createdAt,value
2023-08-15T00:01:08.413Z,93.63
2023-08-15T00:03:36.712Z,93.69
2023-08-15T00:06:06.296Z,94.05
2023-08-15T00:08:34.473Z,93.04
2023-08-15T00:11:02.535Z,94.57
2023-08-15T00:13:30.675Z,93.99
2023-08-15T00:15:58.804Z,93.12
2023-08-15T00:18:27.013Z,93.91
2023-08-15T00:20:55.091Z,94.77
2023-08-15T00:23:24.644Z,93.71
2023-08-15T00:25:52.719Z,95.97
2023-08-15T00:28:20.904Z,96.72
2023-08-15T00:30:49.083Z,97.38
2023-08-15T00:33:17.158Z,99.10
2023-08-15T00:35:45.559Z,99.21
2023-08-15T00:38:13.778Z,100.00
2023-08-15T00:40:43.572Z,100.00
2023-08-15T00:43:12.080Z,100.00
2023-08-15T00:45:42.738Z,100.00
2023-08-15T00:48:12.129Z,100.00
2023-08-15T00:50:41.165Z,100.00
2023-08-15T00:53:09.654Z,100.00
2023-08-15T00:55:38.077Z,100.00
2023-08-15T00:58:08.115Z,100.00
2023-08-15T01:00:36.489Z,100.00
2023-08-15T01:03:05.148Z,100.00
2023-08-15T01:05:33.986Z,100.00
2023-08-15T01:08:02.451Z,100.00
2023-08-15T01:10:30.767Z,100.00
2023-08-15T01:13:07.837Z,100.00
2023-08-15T01:15:43.816Z,100.00
2023-08-15T01:18:17.564Z,100.00
2023-08-15T01:20:46.309Z,100.00
2023-08-15T01:23:16.577Z,100.00
2023-08-15T01:25:46.059Z,100.00
2023-08-15T01:28:15.690Z,100.00
2023-08-15T01:30:48.756Z,100.00
2023-08-15T01:33:21.408Z,100.00
2023-08-15T01:35:58.109Z,100.00
2023-08-15T01:38:33.666Z,100.00
2023-08-15T01:41:05.743Z,100.00
2023-08-15T01:43:35.436Z,100.00
2023-08-15T01:46:04.030Z,100.00
2023-08-15T01:48:32.223Z,100.00
2023-08-15T01:51:00.629Z,100.00
2023-08-15T01:53:28.775Z,100.00
2023-08-15T01:55:56.886Z,100.00
2023-08-15T01:58:26.407Z,100.00
2023-08-15T02:00:54.525Z,100.00
2023-08-15T02:03:22.843Z,100.00
2023-08-15T02:05:51.014Z,100.00
2023-08-15T02:08:19.184Z,100.00
2023-08-15T02:10:47.330Z,100.00
2023-08-15T02:13:15.425Z,100.00
2023-08-15T02:15:45.165Z,100.00
2023-08-15T02:18:13.436Z,100.00
2023-08-15T02:20:41.641Z,100.00
2023-08-15T02:23:09.803Z,100.00
2023-08-15T02:25:37.909Z,100.00
2023-08-15T02:28:05.698Z,100.00
2023-08-15T02:30:38.451Z,100.00
2023-08-15T02:33:08.890Z,100.00
2023-08-15T02:35:41.077Z,100.00
2023-08-15T02:38:09.447Z,100.00
2023-08-15T02:40:37.705Z,100.00
2023-08-15T02:43:06.289Z,100.00
2023-08-15T02:45:34.431Z,100.00
2023-08-15T02:48:02.654Z,100.00
2023-08-15T02:50:32.205Z,100.00
2023-08-15T02:53:00.338Z,100.00
2023-08-15T02:55:28.401Z,100.00
2023-08-15T02:57:56.534Z,100.00
2023-08-15T03:00:24.696Z,100.00
2023-08-15T03:02:52.821Z,100.00
2023-08-15T03:05:21.305Z,100.00
2023-08-15T03:07:50.814Z,100.00
2023-08-15T03:10:18.965Z,100.00
2023-08-15T03:12:47.110Z,100.00
2023-08-15T03:15:15.246Z,100.00
2023-08-15T03:17:44.144Z,100.00
2023-08-15T03:20:13.367Z,100.00
2023-08-15T03:22:45.436Z,100.00
2023-08-15T03:25:14.969Z,100.00
2023-08-15T03:27:43.089Z,100.00
2023-08-15T03:30:12.308Z,100.00
2023-08-15T03:32:40.498Z,100.00
2023-08-15T03:35:09.759Z,100.00
2023-08-15T03:37:37.903Z,100.00
2023-08-15T03:40:07.180Z,100.00
2023-08-15T03:42:36.717Z,100.00
2023-08-15T03:45:05.395Z,100.00
2023-08-15T03:47:33.584Z,100.00
2023-08-15T03:50:01.784Z,100.00
2023-08-15T03:52:29.882Z,100.00
2023-08-15T03:54:57.940Z,100.00
2023-08-15T03:57:26.142Z,100.00
2023-08-15T03:59:55.763Z,100.00
2023-08-15T04:02:23.930Z,100.00
2023-08-15T04:04:52.051Z,100.00
2023-08-15T04:07:20.451Z,100.00
2023-08-15T04:09:48.686Z,100.00
2023-08-15T04:12:16.826Z,100.00
2023-08-15T04:14:45.114Z,96.73
2023-08-15T04:17:14.572Z,90.64
2023-08-15T04:19:42.698Z,84.02
2023-08-15T04:22:10.796Z,80.17
2023-08-15T04:24:38.917Z,75.65
2023-08-15T04:27:08.961Z,71.83
2023-08-15T04:29:37.126Z,68.91
2023-08-15T04:32:05.695Z,65.92
2023-08-15T04:34:35.180Z,62.87
2023-08-15T04:37:03.293Z,61.00
2023-08-15T04:39:31.427Z,58.93
2023-08-15T04:41:59.528Z,57.01
2023-08-15T04:44:27.620Z,55.71
2023-08-15T04:46:56.011Z,54.33
2023-08-15T04:49:24.075Z,52.47
2023-08-15T04:51:53.561Z,49.93
2023-08-15T04:54:21.672Z,49.17
2023-08-15T04:56:50.252Z,47.73
2023-08-15T04:59:19.021Z,47.39
2023-08-15T05:01:47.318Z,44.86
2023-08-15T05:04:15.541Z,44.08
2023-08-15T05:06:43.589Z,42.97
2023-08-15T05:09:13.140Z,42.36
2023-08-15T05:11:41.281Z,41.97
2023-08-15T05:14:09.342Z,41.99
2023-08-15T05:16:37.496Z,41.13
2023-08-15T05:19:05.848Z,40.21
2023-08-15T05:21:34.039Z,41.01
2023-08-15T05:24:02.252Z,40.97
2023-08-15T05:26:31.765Z,38.50
2023-08-15T05:28:59.909Z,39.08
2023-08-15T05:31:28.134Z,39.39
2023-08-15T05:33:56.315Z,39.81
2023-08-15T05:36:24.479Z,38.70
2023-08-15T05:38:52.596Z,38.28
2023-08-15T05:41:20.696Z,39.03
2023-08-15T05:43:50.171Z,38.92
2023-08-15T05:46:18.253Z,36.99
2023-08-15T05:48:46.379Z,38.17
2023-08-15T05:51:14.493Z,37.58
2023-08-15T05:53:42.686Z,38.68
2023-08-15T05:56:10.834Z,38.90
2023-08-15T05:58:39.022Z,39.81
2023-08-15T06:01:08.801Z,38.07
2023-08-15T06:06:09.461Z,41.32
2023-08-15T06:08:37.644Z,40.28
2023-08-15T06:11:05.779Z,40.32
2023-08-15T06:13:33.888Z,41.34
2023-08-15T06:16:02.061Z,41.56
2023-08-15T06:18:31.534Z,40.56
2023-08-15T06:20:59.626Z,40.72
2023-08-15T06:23:27.817Z,40.62
2023-08-15T06:25:55.999Z,40.07
2023-08-15T06:28:24.080Z,41.55
2023-08-15T06:30:52.361Z,40.91
2023-08-15T06:33:20.564Z,41.89
2023-08-15T06:35:50.107Z,42.67
2023-08-15T06:38:18.213Z,42.26
2023-08-15T06:40:46.321Z,43.64
2023-08-15T06:43:14.425Z,44.10
2023-08-15T06:45:44.685Z,45.13
2023-08-15T06:48:12.796Z,46.19
2023-08-15T06:50:40.930Z,46.28
2023-08-15T06:53:10.445Z,46.55
2023-08-15T06:55:38.746Z,44.16
2023-08-15T06:58:07.415Z,45.41
2023-08-15T07:00:36.091Z,45.84
2023-08-15T07:03:04.411Z,46.51
2023-08-15T07:05:32.568Z,46.68
2023-08-15T07:08:01.094Z,46.89
2023-08-15T07:10:30.568Z,47.28
2023-08-15T07:12:58.697Z,46.56
2023-08-15T07:15:26.799Z,47.97
2023-08-15T07:17:55.095Z,48.35
2023-08-15T07:20:23.262Z,49.61
2023-08-15T07:22:51.456Z,48.64
2023-08-15T07:25:19.768Z,48.71
2023-08-15T07:27:49.524Z,49.85
2023-08-15T07:30:17.674Z,51.31
2023-08-15T07:32:45.849Z,50.57
2023-08-15T07:35:14.272Z,49.32
2023-08-15T07:37:42.446Z,50.57
2023-08-15T07:40:11.812Z,50.13
2023-08-15T07:42:40.053Z,50.59
2023-08-15T07:45:10.761Z,50.79
2023-08-15T07:47:39.746Z,50.43
2023-08-15T07:50:16.081Z,51.49
2023-08-15T07:52:44.766Z,50.78
2023-08-15T07:55:13.672Z,51.45
2023-08-15T07:57:42.043Z,50.95
2023-08-15T08:00:14.105Z,51.90
2023-08-15T08:02:43.016Z,50.51
2023-08-15T08:05:12.879Z,49.82
2023-08-15T08:07:43.559Z,51.50
2023-08-15T08:10:12.177Z,50.72
2023-08-15T08:12:40.541Z,49.31
2023-08-15T08:15:09.554Z,50.23
2023-08-15T08:17:39.293Z,50.93
2023-08-15T08:20:13.492Z,50.72
2023-08-15T08:22:43.086Z,48.07
2023-08-15T08:25:17.514Z,49.24
2023-08-15T08:27:46.301Z,47.62
2023-08-15T08:30:15.665Z,47.66
2023-08-15T08:32:45.471Z,47.68
2023-08-15T08:35:16.568Z,48.77
2023-08-15T08:37:45.648Z,46.67
2023-08-15T08:40:15.019Z,47.58
2023-08-15T08:42:43.683Z,46.79
2023-08-15T08:45:12.732Z,47.32
2023-08-15T08:47:41.877Z,47.44
2023-08-15T08:50:12.806Z,47.99
2023-08-15T08:52:43.264Z,46.89
2023-08-15T08:55:12.797Z,44.60
2023-08-15T08:57:44.581Z,44.63
2023-08-15T09:00:15.531Z,45.74
2023-08-15T09:02:43.785Z,44.78
2023-08-15T09:05:13.395Z,44.83
2023-08-15T09:07:43.475Z,45.64
2023-08-15T09:10:12.817Z,44.60
2023-08-15T09:12:42.142Z,46.09
2023-08-15T09:15:11.900Z,45.20
2023-08-15T09:17:40.344Z,45.12
2023-08-15T09:20:15.687Z,44.12
2023-08-15T09:22:47.007Z,43.75
2023-08-15T09:25:17.140Z,43.75
2023-08-15T09:27:45.973Z,43.27
2023-08-15T09:30:16.123Z,43.31
2023-08-15T09:32:46.813Z,43.96
2023-08-15T09:35:18.480Z,43.50
2023-08-15T09:37:48.494Z,44.29
2023-08-15T09:40:19.150Z,43.77
2023-08-15T09:42:47.950Z,43.61
2023-08-15T09:45:16.991Z,42.71
2023-08-15T09:47:46.966Z,42.79
2023-08-15T09:50:17.852Z,42.50
2023-08-15T09:52:52.001Z,42.47
2023-08-15T09:55:21.303Z,41.59
2023-08-15T09:57:50.874Z,41.69
2023-08-15T10:00:19.606Z,40.65
2023-08-15T10:02:50.903Z,41.11
2023-08-15T10:05:23.955Z,41.10
2023-08-15T10:07:52.605Z,41.27
2023-08-15T10:10:22.019Z,41.28
2023-08-15T10:12:52.376Z,40.69
2023-08-15T10:15:22.603Z,40.91
2023-08-15T10:17:52.145Z,40.97
2023-08-15T10:20:23.040Z,40.75
2023-08-15T10:22:56.733Z,41.93
2023-08-15T10:25:38.388Z,40.88
2023-08-15T10:28:07.673Z,42.13
2023-08-15T10:30:37.778Z,40.89
2023-08-15T10:33:17.088Z,39.72
2023-08-15T10:35:52.098Z,40.53
2023-08-15T10:38:22.769Z,40.70
2023-08-15T10:40:53.419Z,41.29
2023-08-15T10:43:27.191Z,38.66
2023-08-15T10:45:58.809Z,37.59
2023-08-15T10:48:59.983Z,37.65
2023-08-15T10:51:33.246Z,37.52
2023-08-15T10:54:03.277Z,38.72
2023-08-15T10:56:32.745Z,38.22
2023-08-15T10:59:06.725Z,39.23
2023-08-15T11:01:35.126Z,39.14
2023-08-15T11:04:04.451Z,37.98
2023-08-15T11:06:42.826Z,39.48
2023-08-15T11:09:12.323Z,37.02
2023-08-15T11:11:40.820Z,37.77
2023-08-15T11:14:17.693Z,37.40
2023-08-15T11:16:47.139Z,36.86
2023-08-15T11:19:17.120Z,37.83
2023-08-15T11:21:47.001Z,37.43
2023-08-15T11:24:15.105Z,37.52
2023-08-15T11:26:43.347Z,37.65
2023-08-15T11:29:12.413Z,38.91
2023-08-15T11:31:40.957Z,38.57
2023-08-15T11:34:12.439Z,37.52
2023-08-15T11:36:41.185Z,37.11
2023-08-15T11:39:15.025Z,37.54
2023-08-15T11:41:44.094Z,36.97
2023-08-15T11:44:12.734Z,37.70
2023-08-15T11:49:18.131Z,36.97
2023-08-15T11:51:46.431Z,36.59
2023-08-15T11:54:15.949Z,37.84
2023-08-15T11:56:51.140Z,38.30
2023-08-15T11:59:20.132Z,38.35
2023-08-15T12:01:49.257Z,38.53
2023-08-15T12:04:18.833Z,37.18
2023-08-15T12:06:47.347Z,37.98
2023-08-15T12:09:17.225Z,38.53
2023-08-15T12:11:45.375Z,36.63
2023-08-15T12:14:20.699Z,37.67
2023-08-15T12:16:49.072Z,38.35
2023-08-15T12:19:21.047Z,39.49
2023-08-15T12:21:51.654Z,39.77
2023-08-15T12:24:21.282Z,37.18
2023-08-15T12:26:49.393Z,38.06
2023-08-15T12:29:18.245Z,38.35
2023-08-15T12:31:47.049Z,37.88
2023-08-15T12:34:15.520Z,37.57
2023-08-15T12:36:43.662Z,38.38
2023-08-15T12:39:11.893Z,37.18
2023-08-15T12:41:41.551Z,38.25
2023-08-15T12:44:09.864Z,37.24
2023-08-15T12:46:38.005Z,38.11
2023-08-15T12:49:06.420Z,37.50
2023-08-15T12:51:34.672Z,37.82
2023-08-15T12:54:02.847Z,38.73
2023-08-15T12:56:31.024Z,36.76
2023-08-15T12:59:00.686Z,37.57
2023-08-15T13:01:29.213Z,38.19
2023-08-15T13:03:58.048Z,36.54
2023-08-15T13:06:26.127Z,37.56
2023-08-15T13:08:54.246Z,36.92
2023-08-15T13:11:22.563Z,36.51
2023-08-15T13:13:50.785Z,36.24
2023-08-15T13:16:20.454Z,35.71
2023-08-15T13:18:48.624Z,36.12
2023-08-15T13:21:16.862Z,36.40
2023-08-15T13:23:46.593Z,36.88
2023-08-15T13:26:15.103Z,35.83
2023-08-15T13:28:43.301Z,35.42
2023-08-15T13:31:11.489Z,36.74
2023-08-15T13:33:41.248Z,36.47
2023-08-15T13:36:09.933Z,36.50
2023-08-15T13:38:38.795Z,36.06
2023-08-15T13:41:07.490Z,36.00
2023-08-15T13:43:35.613Z,36.70
2023-08-15T13:46:04.671Z,36.55
2023-08-15T13:48:32.850Z,35.94
2023-08-15T13:51:04.436Z,36.43
2023-08-15T13:53:32.620Z,36.51
2023-08-15T13:56:00.813Z,36.19
2023-08-15T13:58:30.207Z,37.58
2023-08-15T14:00:59.232Z,37.43
2023-08-15T14:03:31.048Z,36.37
2023-08-15T14:06:00.285Z,38.21
2023-08-15T14:08:30.571Z,37.54
2023-08-15T14:10:59.614Z,36.04
2023-08-15T14:13:27.804Z,36.17
2023-08-15T14:15:55.976Z,37.05
2023-08-15T14:18:24.593Z,36.15
2023-08-15T14:20:52.810Z,37.30
2023-08-15T14:23:21.348Z,37.34
2023-08-15T14:25:51.317Z,37.71
2023-08-15T14:28:19.443Z,38.21
2023-08-15T14:30:48.072Z,38.68
2023-08-15T14:33:17.676Z,39.00
2023-08-15T14:35:46.180Z,39.08
2023-08-15T14:38:15.153Z,38.93
2023-08-15T14:40:43.725Z,38.19
2023-08-15T14:43:13.412Z,38.60
2023-08-15T14:45:41.579Z,38.90
2023-08-15T14:48:09.748Z,38.71
2023-08-15T14:50:37.933Z,39.52
2023-08-15T14:53:06.550Z,39.53
2023-08-15T14:55:35.010Z,40.03
2023-08-15T14:58:03.799Z,39.57
2023-08-15T15:00:33.416Z,40.21
2023-08-15T15:03:01.622Z,40.91
2023-08-15T15:05:29.846Z,40.74
2023-08-15T15:07:57.848Z,39.15
2023-08-15T15:10:26.004Z,38.39
2023-08-15T15:12:54.203Z,39.68
2023-08-15T15:15:31.531Z,40.90
2023-08-15T15:18:10.745Z,40.84
2023-08-15T15:20:38.926Z,41.98
2023-08-15T15:23:07.028Z,40.97
2023-08-15T15:25:35.367Z,39.28
2023-08-15T15:28:03.526Z,40.09
2023-08-15T15:30:31.621Z,42.08
2023-08-15T15:32:59.764Z,41.35
2023-08-15T15:35:29.450Z,42.41
2023-08-15T15:37:57.555Z,42.17
2023-08-15T15:40:25.698Z,41.99
2023-08-15T15:42:53.792Z,41.97
2023-08-15T15:45:21.935Z,43.00
2023-08-15T15:47:50.180Z,42.04
2023-08-15T15:50:20.826Z,41.67
2023-08-15T15:52:50.818Z,41.59
2023-08-15T15:55:22.535Z,40.18
2023-08-15T15:57:51.845Z,40.03
2023-08-15T16:00:21.177Z,40.40
2023-08-15T16:02:49.785Z,42.40
2023-08-15T16:05:17.957Z,40.71
2023-08-15T16:07:46.074Z,41.71
2023-08-15T16:10:15.661Z,42.33
2023-08-15T16:12:43.787Z,43.74
2023-08-15T16:15:12.489Z,41.89
2023-08-15T16:17:43.983Z,42.11
2023-08-15T16:20:13.608Z,42.39
2023-08-15T16:22:41.782Z,43.29
2023-08-15T16:25:10.333Z,44.08
2023-08-15T16:27:39.986Z,44.54
2023-08-15T16:30:17.317Z,44.79
2023-08-15T16:32:49.104Z,47.63
2023-08-15T16:35:17.611Z,45.16
2023-08-15T16:37:47.081Z,44.38
2023-08-15T16:40:15.549Z,44.67
2023-08-15T16:42:45.160Z,45.41
2023-08-15T16:45:14.205Z,43.07
2023-08-15T16:47:45.510Z,44.09
2023-08-15T16:50:14.424Z,43.87
2023-08-15T16:52:42.971Z,43.90
2023-08-15T16:55:11.695Z,44.07
2023-08-15T16:57:40.610Z,44.25
2023-08-15T17:00:13.084Z,43.82
2023-08-15T17:02:41.975Z,44.66
2023-08-15T17:05:12.152Z,44.35
2023-08-15T17:07:40.792Z,44.47
2023-08-15T17:10:10.679Z,45.02
2023-08-15T17:12:40.827Z,44.65
2023-08-15T17:15:12.952Z,44.70
2023-08-15T17:17:41.326Z,45.39
2023-08-15T17:20:11.022Z,46.99
2023-08-15T17:22:40.039Z,47.89
2023-08-15T17:25:09.504Z,48.82
2023-08-15T17:27:37.789Z,51.60
2023-08-15T17:30:06.918Z,55.00
2023-08-15T17:32:39.038Z,55.63
2023-08-15T17:35:09.350Z,58.62
2023-08-15T17:37:37.976Z,59.59
2023-08-15T17:40:07.477Z,60.23
2023-08-15T17:42:36.411Z,60.01
2023-08-15T17:45:06.031Z,62.08
2023-08-15T17:47:35.331Z,63.25
2023-08-15T17:50:07.372Z,63.09
2023-08-15T17:52:37.213Z,64.51
2023-08-15T17:55:06.513Z,64.36
2023-08-15T17:57:35.497Z,62.14
2023-08-15T18:00:05.148Z,60.84
2023-08-15T18:02:34.698Z,61.85
2023-08-15T18:05:07.003Z,62.28
2023-08-15T18:07:35.171Z,63.61
2023-08-15T18:10:05.446Z,64.55
2023-08-15T18:12:35.312Z,64.32
2023-08-15T18:15:03.956Z,64.18
2023-08-15T18:17:32.987Z,63.82
2023-08-15T18:20:01.790Z,63.79
2023-08-15T18:22:32.536Z,64.71
2023-08-15T18:25:01.807Z,65.61
2023-08-15T18:27:31.265Z,64.87
2023-08-15T18:30:02.476Z,64.54
2023-08-15T18:32:31.419Z,64.98
2023-08-15T18:35:00.500Z,64.85
2023-08-15T18:37:30.071Z,65.83
2023-08-15T18:40:00.461Z,68.26
2023-08-15T18:42:29.501Z,68.31
2023-08-15T18:44:58.849Z,69.41
2023-08-15T18:47:27.618Z,72.49
2023-08-15T18:49:56.572Z,73.98
2023-08-15T18:52:28.252Z,75.52
2023-08-15T18:54:56.873Z,77.36
2023-08-15T18:57:27.398Z,77.55
2023-08-15T19:00:00.963Z,78.56
2023-08-15T19:02:29.289Z,79.72
2023-08-15T19:04:59.951Z,83.55
2023-08-15T19:07:29.776Z,87.36
2023-08-15T19:09:58.061Z,91.46
2023-08-15T19:12:29.090Z,94.85
2023-08-15T19:14:59.060Z,94.51
2023-08-15T19:17:28.969Z,92.21
2023-08-15T19:19:59.377Z,88.38
2023-08-15T19:22:28.908Z,84.03
2023-08-15T19:24:58.305Z,81.91
2023-08-15T19:27:30.764Z,78.66
2023-08-15T19:30:01.126Z,80.37
2023-08-15T19:32:30.213Z,80.65
2023-08-15T19:34:58.868Z,81.11
2023-08-15T19:37:36.913Z,84.27
2023-08-15T19:40:10.091Z,94.49
2023-08-15T19:42:44.792Z,100.00
2023-08-15T19:45:16.746Z,100.00
2023-08-15T19:47:45.996Z,100.00
2023-08-15T19:50:14.429Z,100.00
2023-08-15T19:52:43.752Z,100.00
2023-08-15T19:55:13.816Z,100.00
2023-08-15T19:57:44.257Z,100.00
2023-08-15T20:00:14.996Z,100.00
2023-08-15T20:02:44.115Z,100.00
2023-08-15T20:05:12.389Z,100.00
2023-08-15T20:07:41.893Z,100.00
2023-08-15T20:10:12.578Z,100.00
2023-08-15T20:12:43.314Z,100.00
2023-08-15T20:15:13.596Z,100.00
2023-08-15T20:17:43.374Z,100.00
2023-08-15T20:20:13.593Z,100.00
2023-08-15T20:22:42.595Z,100.00
2023-08-15T20:25:11.742Z,100.00
2023-08-15T20:27:40.637Z,100.00
2023-08-15T20:30:11.485Z,100.00
2023-08-15T20:32:40.840Z,100.00
2023-08-15T20:35:12.241Z,100.00
2023-08-15T20:37:41.134Z,100.00
2023-08-15T20:40:12.233Z,100.00
2023-08-15T20:42:41.100Z,99.13
2023-08-15T20:45:12.332Z,96.12
2023-08-15T20:47:41.234Z,95.08
2023-08-15T20:50:10.551Z,95.42
2023-08-15T20:52:38.940Z,94.13
2023-08-15T20:55:09.047Z,93.92
2023-08-15T20:57:37.230Z,95.44
2023-08-15T21:00:06.432Z,95.88
2023-08-15T21:02:35.939Z,96.71
2023-08-15T21:05:04.749Z,96.03
2023-08-15T21:07:32.782Z,97.09
2023-08-15T21:10:01.955Z,97.67
2023-08-15T21:12:30.451Z,97.57
2023-08-15T21:14:58.574Z,97.91
2023-08-15T21:17:26.908Z,97.52
2023-08-15T21:19:56.917Z,96.70
2023-08-15T21:22:25.131Z,97.61
2023-08-15T21:24:53.264Z,97.38
2023-08-15T21:27:21.439Z,98.71
2023-08-15T21:29:49.881Z,99.08
2023-08-15T21:32:18.113Z,100.00
2023-08-15T21:34:46.414Z,100.00
2023-08-15T21:37:16.140Z,100.00
2023-08-15T21:39:44.265Z,100.00
2023-08-15T21:42:12.377Z,100.00
2023-08-15T21:44:40.521Z,100.00
2023-08-15T21:47:09.297Z,99.50
2023-08-15T21:49:37.364Z,99.48
2023-08-15T21:52:06.007Z,100.00
2023-08-15T21:54:35.496Z,100.00
2023-08-15T21:57:06.476Z,100.00
2023-08-15T21:59:40.160Z,100.00
2023-08-15T22:02:08.337Z,100.00
2023-08-15T22:04:36.437Z,100.00
2023-08-15T22:07:04.748Z,100.00
2023-08-15T22:09:32.927Z,100.00
2023-08-15T22:12:02.366Z,100.00
2023-08-15T22:14:30.452Z,100.00
2023-08-15T22:16:58.639Z,100.00
2023-08-15T22:19:26.763Z,100.00
2023-08-15T22:21:54.982Z,100.00
2023-08-15T22:24:23.106Z,100.00
2023-08-15T22:26:51.311Z,100.00
2023-08-15T22:29:20.801Z,100.00
2023-08-15T22:31:48.991Z,100.00
2023-08-15T22:34:17.476Z,100.00
2023-08-15T22:36:46.240Z,100.00
2023-08-15T22:39:14.359Z,100.00
2023-08-15T22:41:42.409Z,100.00
2023-08-15T22:44:11.237Z,100.00
2023-08-15T22:46:40.729Z,100.00
2023-08-15T22:49:08.882Z,100.00
2023-08-15T22:51:37.017Z,100.00
2023-08-15T22:54:05.585Z,100.00
2023-08-15T22:56:33.665Z,98.91
2023-08-15T22:59:01.772Z,98.14
2023-08-15T23:01:29.949Z,98.04
2023-08-15T23:04:00.688Z,97.23
2023-08-15T23:06:29.008Z,96.78
2023-08-15T23:08:57.072Z,97.00
2023-08-15T23:11:25.116Z,97.75
2023-08-15T23:13:53.161Z,98.39
2023-08-15T23:16:21.248Z,98.49
2023-08-15T23:18:49.890Z,99.31
2023-08-15T23:21:19.370Z,99.73
2023-08-15T23:23:47.396Z,100.00
2023-08-15T23:26:15.532Z,100.00
2023-08-15T23:28:43.660Z,100.00
2023-08-15T23:31:12.520Z,100.00
2023-08-15T23:33:41.082Z,100.00
2023-08-15T23:36:09.228Z,100.00
2023-08-15T23:38:38.681Z,100.00
2023-08-15T23:41:06.769Z,100.00
2023-08-15T23:43:34.884Z,100.00
2023-08-15T23:46:03.110Z,100.00
2023-08-15T23:48:31.133Z,100.00
2023-08-15T23:50:59.320Z,100.00
2023-08-15T23:53:27.649Z,100.00
2023-08-15T23:55:57.182Z,100.00
2023-08-15T23:58:25.271Z,100.00
